createdAt,value
2022-12-01T04:56:57.326Z,11.63
2022-12-01T04:59:59.815Z,11.70
2022-12-01T05:03:01.916Z,11.88
2022-12-01T05:06:07.389Z,11.30
2022-12-01T05:09:17.217Z,11.95
2022-12-01T05:12:20.205Z,11.82
2022-12-01T05:15:22.231Z,11.95
2022-12-01T05:18:24.631Z,12.07
2022-12-01T05:21:26.728Z,12.70
2022-12-01T05:24:29.069Z,13.30
2022-12-01T05:27:31.091Z,13.30
2022-12-01T05:30:33.527Z,12.70
2022-12-01T05:33:35.652Z,12.88
2022-12-01T05:36:37.992Z,12.30
2022-12-01T05:39:40.246Z,12.32
2022-12-01T05:42:42.625Z,12.90
2022-12-01T05:45:44.693Z,14.90
2022-12-01T05:48:47.302Z,13.07
2022-12-01T05:51:49.320Z,13.35
2022-12-01T05:54:51.631Z,14.52
2022-12-01T05:57:53.656Z,14.00
2022-12-01T06:00:55.939Z,15.07
2022-12-01T06:03:58.341Z,14.80
2022-12-01T06:07:00.424Z,15.95
2022-12-01T06:10:03.498Z,15.77
2022-12-01T06:13:05.515Z,15.05
2022-12-01T06:16:08.247Z,16.23
2022-12-01T06:19:10.461Z,16.48
2022-12-01T06:22:12.865Z,16.23
2022-12-01T06:25:15.155Z,17.70
2022-12-01T06:28:17.544Z,19.48
2022-12-01T06:31:19.675Z,18.15
2022-12-01T06:34:22.396Z,17.77
2022-12-01T06:37:24.477Z,20.62
2022-12-01T06:40:27.392Z,18.85
2022-12-01T06:43:29.758Z,18.85
2022-12-01T06:46:32.156Z,19.33
2022-12-01T06:49:34.529Z,18.15
2022-12-01T06:52:41.853Z,18.25
2022-12-01T06:55:43.928Z,19.12
2022-12-01T06:58:49.638Z,16.65
2022-12-01T07:01:51.723Z,17.50
2022-12-01T07:04:54.342Z,16.90
2022-12-01T07:07:59.539Z,16.95
2022-12-01T07:11:05.758Z,18.10
2022-12-01T07:14:16.215Z,17.10
2022-12-01T07:17:18.552Z,18.27
2022-12-01T07:20:20.673Z,17.30
2022-12-01T07:23:23.039Z,18.37
2022-12-01T07:26:25.117Z,17.90
2022-12-01T07:29:27.423Z,19.05
2022-12-01T07:32:29.560Z,19.70
2022-12-01T07:35:31.932Z,20.00
2022-12-01T07:38:34.815Z,20.52
2022-12-01T07:41:37.181Z,18.90
2022-12-01T07:44:39.246Z,19.10
2022-12-01T07:47:41.573Z,19.05
2022-12-01T07:50:43.641Z,17.77
2022-12-01T07:53:47.897Z,18.15
2022-12-01T07:56:49.933Z,18.17
2022-12-01T07:59:53.011Z,18.83
2022-12-01T08:02:55.111Z,18.27
2022-12-01T08:05:58.723Z,18.15
2022-12-01T08:09:00.768Z,18.80
2022-12-01T08:12:03.235Z,20.42
2022-12-01T08:15:05.737Z,22.33
2022-12-01T08:18:08.060Z,21.83
2022-12-01T08:21:13.205Z,20.80
2022-12-01T08:24:15.802Z,21.33
2022-12-01T08:27:18.671Z,21.58
2022-12-01T08:30:22.022Z,21.75
2022-12-01T08:33:24.276Z,19.83
2022-12-01T08:36:27.108Z,21.83
2022-12-01T08:39:29.193Z,20.25
2022-12-01T08:42:31.487Z,20.33
2022-12-01T08:45:33.531Z,22.08
2022-12-01T08:48:36.199Z,21.42
2022-12-01T08:51:38.229Z,20.50
2022-12-01T08:54:40.985Z,20.25
2022-12-01T08:57:43.052Z,20.67
2022-12-01T09:00:45.335Z,21.50
2022-12-01T09:03:47.402Z,20.77
2022-12-01T09:06:51.224Z,21.20
2022-12-01T09:09:53.319Z,20.42
2022-12-01T09:12:55.668Z,20.98
2022-12-01T09:16:07.500Z,16.92
2022-12-01T09:19:13.066Z,18.60
2022-12-01T09:22:15.546Z,20.48
2022-12-01T09:25:17.876Z,21.37
2022-12-01T09:28:20.612Z,16.12
2022-12-01T09:31:23.648Z,14.07
2022-12-01T09:34:26.612Z,14.93
2022-12-01T09:37:28.983Z,15.93
2022-12-01T09:40:43.218Z,14.38
2022-12-01T09:44:02.277Z,15.15
2022-12-01T09:47:18.770Z,13.07
2022-12-01T09:50:25.279Z,13.00
2022-12-01T09:53:29.593Z,12.85
2022-12-01T09:56:42.373Z,13.75
2022-12-01T09:59:46.105Z,13.70
2022-12-01T10:03:14.984Z,13.55
2022-12-01T10:06:28.163Z,13.57
2022-12-01T10:09:41.088Z,13.50
2022-12-01T10:12:46.419Z,14.87
2022-12-01T10:15:56.984Z,12.82
2022-12-01T10:19:12.476Z,12.73
2022-12-01T10:22:55.365Z,14.45
2022-12-01T10:26:03.223Z,14.38
2022-12-01T10:29:12.524Z,14.25
2022-12-01T10:32:19.943Z,14.45
2022-12-01T10:35:25.012Z,14.50
2022-12-01T10:38:35.989Z,14.68
2022-12-01T10:41:40.128Z,14.65
2022-12-01T10:44:44.206Z,14.98
2022-12-01T10:48:17.136Z,14.87
2022-12-01T10:51:20.576Z,14.82
2022-12-01T10:54:32.373Z,15.02
2022-12-01T10:57:37.551Z,14.25
2022-12-01T11:04:51.485Z,15.43
2022-12-01T11:07:54.004Z,14.90
2022-12-01T11:10:56.733Z,14.90
2022-12-01T11:14:02.218Z,14.10
2022-12-01T11:17:19.564Z,14.43
2022-12-01T11:20:34.558Z,14.73
2022-12-01T11:23:48.813Z,15.30
2022-12-01T11:26:51.171Z,14.23
2022-12-01T11:30:02.799Z,14.93
2022-12-01T11:33:05.830Z,14.82
2022-12-01T11:36:14.648Z,14.52
2022-12-01T11:39:26.599Z,13.93
2022-12-01T11:42:31.293Z,14.65
2022-12-01T11:45:39.211Z,14.10
2022-12-01T11:48:56.567Z,16.35
2022-12-01T11:52:17.708Z,15.05
2022-12-01T11:55:23.579Z,14.07
2022-12-01T11:58:25.659Z,13.30
2022-12-01T12:01:47.273Z,13.52
2022-12-01T12:04:52.522Z,13.68
2022-12-01T12:08:26.730Z,13.62
2022-12-01T12:11:43.726Z,13.10
2022-12-01T12:14:58.537Z,13.80
2022-12-01T12:18:26.563Z,14.02
2022-12-01T12:21:39.528Z,13.07
2022-12-01T12:25:12.759Z,11.85
2022-12-01T12:28:42.946Z,13.55
2022-12-01T12:31:45.479Z,13.77
2022-12-01T12:35:17.012Z,13.48
2022-12-01T12:38:31.241Z,13.65
2022-12-01T12:41:50.655Z,13.50
2022-12-01T12:45:06.437Z,13.88
2022-12-01T12:48:11.306Z,14.57
2022-12-01T12:51:26.372Z,12.85
2022-12-01T12:54:39.316Z,14.95
2022-12-01T12:57:49.310Z,12.65
2022-12-01T13:01:09.298Z,12.27
2022-12-01T13:04:15.230Z,14.35
2022-12-01T13:07:23.545Z,13.23
2022-12-01T13:10:34.374Z,13.65
2022-12-01T13:13:51.586Z,11.50
2022-12-01T13:16:59.578Z,10.13
2022-12-01T13:20:01.777Z,13.43
2022-12-01T13:23:04.984Z,14.40
2022-12-01T13:26:09.195Z,13.13
2022-12-01T13:29:16.889Z,13.07
2022-12-01T13:32:35.609Z,14.32
2022-12-01T13:35:39.568Z,13.45
2022-12-01T13:38:42.040Z,12.55
2022-12-01T13:41:45.990Z,12.05
2022-12-01T13:44:58.449Z,9.63
2022-12-01T13:48:02.455Z,7.82
2022-12-01T13:51:05.158Z,8.23
2022-12-01T13:54:28.193Z,7.78
2022-12-01T13:57:33.926Z,8.20
2022-12-01T14:00:36.619Z,8.30
2022-12-01T14:03:40.629Z,7.97
2022-12-01T14:06:50.378Z,8.18
2022-12-01T14:09:57.448Z,7.90
2022-12-01T14:13:03.823Z,8.43
2022-12-01T14:19:28.229Z,8.57
2022-12-01T14:22:34.248Z,8.32
2022-12-01T14:25:37.531Z,8.90
2022-12-01T14:28:54.897Z,8.20
2022-12-01T14:32:20.756Z,8.35
2022-12-01T14:38:27.823Z,8.02
2022-12-01T14:42:02.763Z,8.27
2022-12-01T14:45:07.891Z,8.95
2022-12-01T14:48:15.551Z,8.30
2022-12-01T14:51:31.733Z,8.85
2022-12-01T14:54:45.144Z,8.98
2022-12-01T14:57:52.525Z,8.60
2022-12-01T15:01:03.540Z,9.00
2022-12-01T15:04:06.234Z,9.15
2022-12-01T15:07:08.552Z,9.30
2022-12-01T15:10:21.048Z,9.23
2022-12-01T15:13:30.218Z,9.57
2022-12-01T15:16:40.853Z,10.15
2022-12-01T15:19:44.067Z,11.00
2022-12-01T15:22:46.177Z,10.52
2022-12-01T15:25:48.550Z,10.95
2022-12-01T15:28:51.084Z,11.88
2022-12-01T15:31:56.943Z,11.68
2022-12-01T15:35:04.647Z,11.17
2022-12-01T15:38:16.892Z,12.05
2022-12-01T15:41:30.561Z,12.10
2022-12-01T15:44:36.279Z,11.60
2022-12-01T15:47:50.564Z,12.13
2022-12-01T15:51:07.100Z,13.43
2022-12-01T15:54:20.884Z,13.13
2022-12-01T15:57:24.664Z,14.70
2022-12-01T16:00:27.629Z,14.23
2022-12-01T16:03:30.575Z,17.42
2022-12-01T16:06:36.381Z,18.00
2022-12-01T16:09:39.978Z,14.85
2022-12-01T16:12:42.042Z,14.77
2022-12-01T16:15:44.445Z,16.37
2022-12-01T16:19:02.257Z,19.52
2022-12-01T16:22:10.348Z,22.73
2022-12-01T16:25:28.680Z,18.33
2022-12-01T16:28:35.410Z,12.45
2022-12-01T16:31:52.621Z,12.32
2022-12-01T16:35:00.586Z,12.32
2022-12-01T16:38:14.944Z,11.77
